Time;durP1;ratioP1;P1;durP2;ratioP2;P2;SDS_P1;SDS_P2;PMS_P1;PMS_P2;Temp;Humidity;BMP_temperature;BMP_pressure;BME280_temperature;BME280_humidity;BME280_pressure;Samples;Min_cycle;Max_cycle;Signal;HPM_P1;HPM_P2
2022/08/26 00:00:58;;;;;;;16.10;8.60;;;;;;;20.96;56.52;99539.81;104826;1277;22554;-64
2022/08/26 00:03:25;;;;;;;12.30;8.50;;;;;;;20.90;56.83;99531.35;104615;1277;137321;-64
2022/08/26 00:05:53;;;;;;;12.40;8.40;;;;;;;20.86;57.19;99538.27;108982;1277;23633;-65
2022/08/26 00:08:20;;;;;;;9.10;7.40;;;;;;;20.80;57.18;99534.36;109079;1277;139427;-65
2022/08/26 00:10:47;;;;;;;12.10;8.20;;;;;;;20.77;56.98;99535.36;109107;1277;22455;-65
2022/08/26 00:13:14;;;;;;;12.00;8.00;;;;;;;20.75;57.05;99533.83;109163;1277;22500;-65
2022/08/26 00:15:45;;;;;;;15.70;8.20;;;;;;;20.73;57.30;99535.42;108964;1277;137667;-65
2022/08/26 00:18:13;;;;;;;10.60;7.90;;;;;;;20.71;57.06;99532.39;109016;1277;22530;-65
2022/08/26 00:20:47;;;;;;;14.50;8.30;;;;;;;20.69;57.26;99533.29;108889;1277;137426;-64
2022/08/26 00:23:14;;;;;;;11.10;7.80;;;;;;;20.66;57.00;99534.16;108929;1279;23275;-65
2022/08/26 00:25:41;;;;;;;10.00;7.00;;;;;;;20.64;57.16;99527.91;108916;1277;139274;-64
2022/08/26 00:28:08;;;;;;;15.40;8.30;;;;;;;20.63;57.15;99528.66;109031;1277;22478;-64
2022/08/26 00:30:36;;;;;;;11.60;8.00;;;;;;;20.61;56.81;99527.89;108977;1277;22570;-64
2022/08/26 00:33:04;;;;;;;8.20;7.00;;;;;;;20.60;56.76;99526.10;108965;1277;138409;-65
2022/08/26 00:35:33;;;;;;;8.90;7.40;;;;;;;20.60;56.64;99520.24;109251;1277;22453;-65
2022/08/26 00:38:00;;;;;;;13.10;8.20;;;;;;;20.61;56.53;99519.95;109061;1277;139054;-65
2022/08/26 00:40:39;;;;;;;11.40;8.50;;;;;;;20.62;56.48;99523.79;109187;1277;22625;-65
2022/08/26 00:43:06;;;;;;;12.40;7.30;;;;;;;20.62;56.60;99521.13;108984;1279;22491;-65
2022/08/26 00:45:48;;;;;;;12.30;7.70;;;;;;;20.62;56.53;99517.25;108797;1277;137829;-64
2022/08/26 00:48:17;;;;;;;20.40;7.80;;;;;;;20.62;56.52;99516.63;108772;1279;22486;-64
2022/08/26 00:50:49;;;;;;;10.50;7.90;;;;;;;20.63;56.53;99516.80;108844;1277;138852;-65
2022/08/26 00:53:22;;;;;;;12.60;7.50;;;;;;;20.64;56.43;99512.86;109077;1277;22434;-64
2022/08/26 00:55:53;;;;;;;10.80;7.40;;;;;;;20.64;56.39;99516.93;108954;1277;139230;-64
2022/08/26 00:58:21;;;;;;;11.60;7.50;;;;;;;20.65;56.28;99515.54;109168;1277;23296;-65
2022/08/26 01:00:48;;;;;;;9.80;7.30;;;;;;;20.65;56.14;99515.02;109174;1277;22644;-64
2022/08/26 01:03:15;;;;;;;11.80;7.30;;;;;;;20.66;55.81;99507.52;109141;1277;137767;-64
2022/08/26 01:05:42;;;;;;;10.70;6.90;;;;;;;20.67;55.75;99508.31;109034;1277;22436;-64
2022/08/26 01:08:09;;;;;;;11.40;7.90;;;;;;;20.69;55.45;99506.80;109139;1277;138406;-64
2022/08/26 01:10:37;;;;;;;12.50;6.80;;;;;;;20.71;55.35;99505.58;109122;1277;23153;-64
2022/08/26 01:13:08;;;;;;;9.80;6.50;;;;;;;20.73;55.10;99505.35;109198;1277;23326;-64
2022/08/26 01:15:44;;;;;;;14.90;7.30;;;;;;;20.75;55.11;99507.02;108881;1277;139138;-64
2022/08/26 01:18:12;;;;;;;12.20;6.40;;;;;;;20.75;54.94;99503.92;108763;1277;22456;-65
2022/08/26 01:21:23;;;;;;;10.10;6.70;;;;;;;20.75;55.01;99505.91;108659;1279;138329;-65
2022/08/26 01:23:50;;;;;;;10.60;7.40;;;;;;;20.74;54.90;99504.55;108356;1284;23592;-65
2022/08/26 01:26:31;;;;;;;9.00;6.80;;;;;;;20.75;54.78;99502.88;108411;1283;138148;-73
2022/08/26 01:28:59;;;;;;;10.00;7.20;;;;;;;20.75;54.67;99500.73;108108;1284;22886;-73
2022/08/26 01:31:29;;;;;;;10.20;6.70;;;;;;;20.75;54.60;99502.16;108184;1285;23177;-73
2022/08/26 01:34:20;;;;;;;11.40;7.40;;;;;;;20.74;54.66;99500.79;108351;1284;137522;-73
2022/08/26 01:36:47;;;;;;;11.90;7.20;;;;;;;20.74;54.52;99501.02;108351;1282;22593;-73
2022/08/26 01:39:17;;;;;;;13.80;6.60;;;;;;;20.73;54.55;99502.16;108247;1282;137576;-73
2022/08/26 01:41:44;;;;;;;11.20;6.90;;;;;;;20.73;54.52;99502.61;108545;1282;22573;-71
2022/08/26 01:44:14;;;;;;;11.60;5.80;;;;;;;20.71;54.48;99498.79;108241;1284;139283;-70
2022/08/26 01:46:42;;;;;;;7.70;6.70;;;;;;;20.70;54.37;99491.95;108234;1284;23827;-71
2022/08/26 01:49:09;;;;;;;11.10;7.60;;;;;;;20.68;54.38;99490.55;108448;1282;23222;-70
2022/08/26 01:51:36;;;;;;;11.30;6.90;;;;;;;20.68;54.40;99487.08;108210;1282;139144;-71
2022/08/26 01:54:04;;;;;;;10.00;6.60;;;;;;;20.67;54.31;99487.88;108371;1282;22637;-71
2022/08/26 01:56:31;;;;;;;11.00;6.70;;;;;;;20.66;54.34;99483.39;108316;1284;138088;-64
2022/08/26 01:59:04;;;;;;;11.20;6.30;;;;;;;20.65;54.31;99485.56;108533;1277;22548;-65
2022/08/26 02:01:31;;;;;;;11.50;7.50;;;;;;;20.64;54.38;99485.59;109045;1277;23130;-65
2022/08/26 02:04:10;;;;;;;11.10;6.90;;;;;;;20.64;54.31;99486.61;108948;1277;140316;-65
2022/08/26 02:06:37;;;;;;;9.90;6.60;;;;;;;20.63;54.32;99485.70;108957;1277;23429;-64
2022/08/26 02:09:05;;;;;;;9.60;6.60;;;;;;;20.61;54.40;99482.16;108920;1279;138210;-64
2022/08/26 02:11:32;;;;;;;10.90;7.20;;;;;;;20.59;54.41;99477.69;109012;1277;22503;-65
2022/08/26 02:14:13;;;;;;;12.10;6.80;;;;;;;20.57;54.43;99478.38;108959;1277;139453;-64
2022/08/26 02:16:40;;;;;;;9.00;7.30;;;;;;;20.54;54.51;99476.84;109087;1277;22498;-64
2022/08/26 02:19:12;;;;;;;9.70;6.80;;;;;;;20.52;54.54;99480.45;109181;1277;22621;-64
2022/08/26 02:21:44;;;;;;;10.00;6.90;;;;;;;20.49;54.58;99481.05;108898;1277;138546;-64
2022/08/26 02:24:19;;;;;;;10.50;7.10;;;;;;;20.46;54.62;99480.04;108991;1277;22412;-64
2022/08/26 02:26:46;;;;;;;10.40;6.80;;;;;;;20.43;54.61;99479.83;108980;1277;137625;-65
2022/08/26 02:29:24;;;;;;;15.70;7.70;;;;;;;20.41;54.70;99485.10;109091;1277;22494;-66
2022/08/26 02:31:51;;;;;;;11.80;7.30;;;;;;;20.38;54.92;99485.19;108976;1277;138224;-65
2022/08/26 02:34:20;;;;;;;10.20;7.10;;;;;;;20.35;54.91;99485.33;109140;1277;23069;-65
2022/08/26 02:36:48;;;;;;;10.60;6.80;;;;;;;20.32;54.98;99485.42;109206;1277;22443;-64
2022/08/26 02:39:16;;;;;;;12.00;7.40;;;;;;;20.29;55.10;99481.02;108957;1277;139306;-64
2022/08/26 02:41:48;;;;;;;10.00;6.50;;;;;;;20.27;55.17;99482.08;109024;1278;22470;-64
2022/08/26 02:44:14;;;;;;;15.20;7.30;;;;;;;20.24;55.19;99483.93;109013;1277;138778;-63
2022/08/26 02:46:41;;;;;;;11.50;7.30;;;;;;;20.21;55.35;99484.24;109198;1276;22250;-64
2022/08/26 02:49:14;;;;;;;17.30;6.70;;;;;;;20.18;55.36;99487.06;109262;1276;22538;-64
2022/08/26 02:51:42;;;;;;;7.90;6.90;;;;;;;20.16;55.46;99488.52;109113;1275;138023;-64
2022/08/26 02:54:09;;;;;;;11.10;6.80;;;;;;;20.12;55.46;99486.06;109167;1277;22542;-64
2022/08/26 02:56:36;;;;;;;12.90;7.30;;;;;;;20.09;55.39;99492.01;109117;1276;139323;-64
2022/08/26 02:59:03;;;;;;;7.40;6.40;;;;;;;20.05;55.54;99497.67;109209;1277;22446;-65
2022/08/26 03:01:32;;;;;;;10.50;7.20;;;;;;;20.03;55.69;99495.81;109197;1276;22562;-65
2022/08/26 03:03:59;;;;;;;17.00;8.00;;;;;;;20.01;55.60;99498.95;109108;1276;138949;-64
2022/08/26 03:06:26;;;;;;;9.70;7.00;;;;;;;19.98;55.66;99498.65;109293;1275;22447;-63
2022/08/26 03:08:53;;;;;;;9.80;6.60;;;;;;;19.96;55.64;99498.31;109281;1274;137216;-63
2022/08/26 03:11:20;;;;;;;12.20;6.90;;;;;;;19.94;55.77;99498.59;109282;1276;22543;-63
2022/08/26 03:13:47;;;;;;;10.50;7.40;;;;;;;19.92;55.88;99498.81;109057;1275;139606;-63
2022/08/26 03:16:14;;;;;;;11.60;7.40;;;;;;;19.90;55.90;99501.75;109303;1274;22299;-63
2022/08/26 03:18:41;;;;;;;13.00;6.70;;;;;;;19.88;56.09;99503.27;109220;1274;23374;-63
2022/08/26 03:21:09;;;;;;;9.40;7.10;;;;;;;19.85;55.98;99505.44;109085;1276;137983;-64
2022/08/26 03:23:37;;;;;;;15.30;7.20;;;;;;;19.83;56.12;99504.94;109198;1275;22705;-64
2022/08/26 03:26:04;;;;;;;10.70;7.20;;;;;;;19.80;56.19;99508.67;109062;1276;138654;-66
2022/08/26 03:28:32;;;;;;;18.40;7.10;;;;;;;19.77;56.25;99509.40;109257;1274;22482;-65
2022/08/26 03:31:01;;;;;;;11.60;8.20;;;;;;;19.75;56.53;99510.64;109315;1274;22445;-65
2022/08/26 03:33:27;;;;;;;9.90;7.60;;;;;;;19.72;56.52;99510.34;109209;1274;137650;-65
2022/08/26 03:35:54;;;;;;;9.00;7.10;;;;;;;19.70;56.54;99508.73;109200;1277;23210;-65
2022/08/26 03:38:23;;;;;;;11.00;7.20;;;;;;;19.70;56.72;99507.91;109170;1276;139086;-65
2022/08/26 03:40:51;;;;;;;9.90;7.40;;;;;;;19.70;56.73;99512.77;109201;1276;22456;-66
2022/08/26 03:43:18;;;;;;;14.40;8.40;;;;;;;19.70;56.71;99508.46;109293;1276;22265;-65
2022/08/26 03:45:45;;;;;;;12.10;6.80;;;;;;;19.70;56.72;99512.27;109289;1274;139126;-65
2022/08/26 03:48:12;;;;;;;13.80;7.90;;;;;;;19.70;56.88;99510.00;109286;1276;22437;-64
2022/08/26 03:50:39;;;;;;;14.60;7.00;;;;;;;19.71;56.73;99511.15;109074;1277;138083;-64
2022/08/26 03:53:05;;;;;;;14.80;7.60;;;;;;;19.72;56.89;99512.77;109302;1273;22530;-65
2022/08/26 03:55:38;;;;;;;11.40;7.10;;;;;;;19.73;56.88;99508.65;109158;1274;138977;-65
2022/08/26 03:58:05;;;;;;;12.40;7.30;;;;;;;19.74;56.79;99514.88;109171;1277;23598;-65
2022/08/26 04:00:32;;;;;;;14.70;7.40;;;;;;;19.76;56.77;99512.98;109212;1276;23398;-64
2022/08/26 04:03:00;;;;;;;14.00;6.90;;;;;;;19.77;56.91;99511.73;109058;1276;137738;-64
2022/08/26 04:05:27;;;;;;;13.10;6.80;;;;;;;19.79;56.85;99503.88;109239;1276;22439;-66
2022/08/26 04:07:53;;;;;;;11.60;6.50;;;;;;;19.82;56.77;99500.05;109099;1276;137908;-66
2022/08/26 04:10:23;;;;;;;14.10;7.40;;;;;;;19.85;56.84;99493.27;109213;1276;22455;-66
2022/08/26 04:12:55;;;;;;;10.90;6.60;;;;;;;19.89;56.65;99493.39;109192;1276;22434;-66
2022/08/26 04:15:25;;;;;;;14.60;6.20;;;;;;;19.93;56.38;99493.97;109011;1276;137591;-66
2022/08/26 04:17:52;;;;;;;10.80;6.40;;;;;;;19.97;56.30;99495.85;109227;1276;23489;-66
2022/08/26 04:20:21;;;;;;;15.60;6.80;;;;;;;20.01;56.20;99496.84;109078;1276;139626;-66
2022/08/26 04:22:48;;;;;;;12.00;7.00;;;;;;;20.05;55.97;99495.45;109122;1277;22482;-65
2022/08/26 04:25:15;;;;;;;16.30;7.30;;;;;;;20.10;55.67;99493.86;109254;1276;22543;-66
2022/08/26 04:27:42;;;;;;;11.80;7.70;;;;;;;20.17;55.49;99489.52;109049;1276;138185;-66
2022/08/26 04:30:10;;;;;;;9.90;6.80;;;;;;;20.24;55.30;99489.14;109204;1273;22257;-66
2022/08/26 04:32:37;;;;;;;16.10;6.80;;;;;;;20.32;54.96;99486.80;109040;1276;137505;-66
2022/08/26 04:35:05;;;;;;;9.80;6.60;;;;;;;20.43;54.77;99485.05;109214;1276;23350;-66
2022/08/26 04:37:34;;;;;;;14.50;6.60;;;;;;;20.56;54.65;99486.87;109209;1276;23391;-66
2022/08/26 04:40:02;;;;;;;14.20;6.20;;;;;;;20.67;54.19;99482.66;109068;1276;138133;-66
2022/08/26 04:42:32;;;;;;;13.80;7.10;;;;;;;20.82;53.21;99480.71;109186;1277;22499;-66
2022/08/26 04:44:59;;;;;;;12.60;6.70;;;;;;;20.96;53.04;99476.13;109067;1276;137686;-66
2022/08/26 04:47:26;;;;;;;11.80;6.20;;;;;;;21.09;53.03;99480.13;109217;1276;23133;-67
2022/08/26 04:49:58;;;;;;;8.90;6.60;;;;;;;21.19;52.72;99477.95;109144;1276;139216;-67
2022/08/26 04:52:25;;;;;;;13.20;6.10;;;;;;;21.24;52.14;99482.08;109263;1276;22483;-66
2022/08/26 04:54:53;;;;;;;12.60;6.50;;;;;;;21.27;52.05;99479.92;109171;1275;23117;-66
2022/08/26 04:57:22;;;;;;;9.20;6.10;;;;;;;21.30;51.91;99478.06;109221;1276;139309;-66
2022/08/26 04:59:48;;;;;;;15.50;7.00;;;;;;;21.37;51.97;99474.81;109212;1276;22597;-66
2022/08/26 05:02:15;;;;;;;16.30;6.90;;;;;;;21.50;51.84;99474.48;109008;1277;138005;-67
2022/08/26 05:04:42;;;;;;;13.30;7.20;;;;;;;21.67;51.30;99475.59;109121;1276;23502;-66
2022/08/26 05:07:09;;;;;;;10.80;6.50;;;;;;;21.83;50.48;99475.55;109243;1276;22283;-66
2022/08/26 05:09:38;;;;;;;13.50;6.40;;;;;;;21.97;50.02;99475.27;109091;1276;138753;-67
2022/08/26 05:12:06;;;;;;;12.40;6.70;;;;;;;22.12;49.76;99473.89;109128;1277;22419;-66
2022/08/26 05:14:34;;;;;;;9.20;6.10;;;;;;;22.27;49.39;99473.05;109130;1274;137463;-66
2022/08/26 05:17:02;;;;;;;10.00;6.00;;;;;;;22.41;49.08;99474.42;109359;1275;23491;-66
2022/08/26 05:19:30;;;;;;;9.10;6.80;;;;;;;22.55;48.24;99473.70;109299;1276;22443;-67
2022/08/26 05:21:58;;;;;;;21.10;6.70;;;;;;;22.67;48.12;99474.77;109178;1276;138934;-64
2022/08/26 05:24:25;;;;;;;17.90;6.20;;;;;;;22.81;48.15;99473.08;109322;1276;22675;-64
2022/08/26 05:26:52;;;;;;;12.00;7.20;;;;;;;22.94;47.75;99470.39;109175;1276;138253;-64
2022/08/26 05:29:22;;;;;;;15.30;6.60;;;;;;;23.07;47.37;99469.38;109238;1276;22307;-63
2022/08/26 05:31:52;;;;;;;9.20;6.20;;;;;;;23.20;47.10;99473.40;109239;1275;138400;-64
2022/08/26 05:34:21;;;;;;;10.50;6.10;;;;;;;23.30;46.58;99467.40;109246;1277;23269;-64
2022/08/26 05:36:51;;;;;;;14.50;6.90;;;;;;;23.39;46.30;99470.64;109365;1276;22490;-64
2022/08/26 05:39:18;;;;;;;23.80;6.30;;;;;;;23.45;46.06;99469.14;109246;1275;137703;-65
2022/08/26 05:41:45;;;;;;;13.90;6.60;;;;;;;23.55;46.03;99474.01;109389;1275;23366;-65
2022/08/26 05:44:13;;;;;;;17.80;6.00;;;;;;;23.64;45.41;99473.84;109156;1276;139055;-64
2022/08/26 05:46:40;;;;;;;15.90;6.00;;;;;;;23.70;45.32;99474.18;109356;1275;22500;-65
2022/08/26 05:49:07;;;;;;;9.90;5.90;;;;;;;23.76;45.51;99471.58;109294;1275;22497;-65
2022/08/26 05:51:39;;;;;;;11.90;6.10;;;;;;;23.83;45.34;99474.96;109178;1276;138885;-65
2022/08/26 05:54:06;;;;;;;19.00;8.20;;;;;;;23.87;44.73;99472.56;109275;1276;23727;-65
2022/08/26 05:56:36;;;;;;;21.60;6.50;;;;;;;23.84;44.53;99477.30;109342;1274;138013;-65
2022/08/26 05:59:03;;;;;;;13.60;6.70;;;;;;;23.79;44.64;99477.88;109493;1274;22404;-65
2022/08/26 06:01:32;;;;;;;14.70;6.30;;;;;;;23.75;44.41;99482.58;109346;1276;22457;-65
2022/08/26 06:04:01;;;;;;;13.90;6.20;;;;;;;23.69;44.47;99479.64;109059;1277;139226;-65
2022/08/26 06:06:30;;;;;;;15.80;6.00;;;;;;;23.63;44.70;99477.23;109294;1274;23403;-65
2022/08/26 06:08:58;;;;;;;14.90;6.10;;;;;;;23.60;44.81;99483.97;109157;1274;139289;-65
2022/08/26 06:11:26;;;;;;;13.00;6.20;;;;;;;23.58;44.37;99483.34;109346;1274;23116;-65
2022/08/26 06:13:53;;;;;;;12.80;5.80;;;;;;;23.56;44.67;99482.50;109115;1274;137806;-67
2022/08/26 06:16:23;;;;;;;14.90;6.50;;;;;;;23.57;44.40;99482.76;109327;1274;22588;-65
2022/08/26 06:18:51;;;;;;;13.60;6.60;;;;;;;23.58;44.86;99479.77;109367;1274;22425;-66
2022/08/26 06:21:23;;;;;;;18.60;6.70;;;;;;;23.57;44.59;99479.19;109316;1274;139285;-66
2022/08/26 06:26:37;;;;;;;14.40;5.80;;;;;;;23.57;44.10;99475.36;109229;1274;138610;-66
2022/08/26 06:29:08;;;;;;;17.20;6.00;;;;;;;23.57;43.84;99473.63;109328;1275;22525;-66
2022/08/26 06:31:35;;;;;;;11.50;5.70;;;;;;;23.55;43.48;99479.05;109233;1277;22794;-66
2022/08/26 06:34:03;;;;;;;15.10;6.20;;;;;;;23.54;43.73;99481.29;109093;1276;137522;-66
2022/08/26 06:36:38;;;;;;;22.10;6.50;;;;;;;23.54;43.90;99480.34;109245;1276;22464;-66
2022/08/26 06:39:06;;;;;;;14.50;6.50;;;;;;;23.55;43.90;99477.52;109160;1276;140413;-66
2022/08/26 06:41:33;;;;;;;10.70;6.10;;;;;;;23.57;44.13;99476.87;109380;1276;22454;-66
2022/08/26 06:44:00;;;;;;;12.80;5.60;;;;;;;23.61;43.99;99475.28;109145;1276;137704;-66
2022/08/26 06:46:28;;;;;;;15.10;6.80;;;;;;;23.66;43.88;99476.62;109300;1276;22446;-66
2022/08/26 06:48:57;;;;;;;19.60;6.20;;;;;;;23.71;42.85;99472.89;109280;1276;22705;-66
2022/08/26 06:51:28;;;;;;;12.90;6.00;;;;;;;23.75;43.49;99474.56;109121;1276;137636;-66
2022/08/26 06:53:58;;;;;;;13.00;5.90;;;;;;;23.80;43.19;99473.77;109241;1276;22557;-67
2022/08/26 06:56:46;;;;;;;12.00;6.10;;;;;;;23.85;42.66;99468.01;109185;1276;137674;-67
2022/08/26 06:59:14;;;;;;;17.60;6.20;;;;;;;23.89;42.94;99465.23;109327;1276;22453;-67
2022/08/26 07:01:44;;;;;;;20.80;6.00;;;;;;;23.93;43.17;99463.52;109160;1276;138568;-67
2022/08/26 07:04:13;;;;;;;16.90;6.20;;;;;;;24.00;43.12;99462.73;109332;1274;22448;-67
2022/08/26 07:06:47;;;;;;;15.80;7.00;;;;;;;24.07;42.97;99455.79;109366;1274;23874;-67
2022/08/26 07:09:14;;;;;;;16.30;5.70;;;;;;;24.16;42.77;99460.67;109228;1276;137606;-66
2022/08/26 07:11:41;;;;;;;10.10;6.00;;;;;;;24.23;41.90;99459.83;109359;1274;22945;-67
2022/08/26 07:14:08;;;;;;;17.10;6.20;;;;;;;24.30;41.60;99479.03;109268;1276;138679;-67
2022/08/26 07:16:35;;;;;;;14.90;5.20;;;;;;;24.36;41.71;99489.52;109240;1276;22514;-67
2022/08/26 07:19:02;;;;;;;13.00;6.00;;;;;;;24.40;41.93;99484.91;109359;1274;23668;-67
2022/08/26 07:21:39;;;;;;;18.50;6.40;;;;;;;24.43;42.13;99483.48;109273;1274;137648;-66
2022/08/26 07:24:06;;;;;;;8.10;5.40;;;;;;;24.48;42.32;99485.19;109291;1276;22448;-66
2022/08/26 07:26:33;;;;;;;27.40;6.60;;;;;;;24.52;41.39;99475.61;109160;1276;139047;-67
2022/08/26 07:29:00;;;;;;;13.30;6.30;;;;;;;24.57;41.34;99476.67;109265;1275;22511;-67
2022/08/26 07:31:30;;;;;;;19.10;5.90;;;;;;;24.60;41.53;99476.65;109402;1275;22419;-67
2022/08/26 07:34:06;;;;;;;14.90;5.90;;;;;;;24.64;41.52;99479.71;109372;1274;23452;-67
2022/08/26 07:36:33;;;;;;;12.50;5.10;;;;;;;24.66;41.91;99475.33;109405;1276;23600;-67
2022/08/26 07:39:00;;;;;;;23.70;6.50;;;;;;;24.72;42.18;99475.61;109212;1276;138261;-67
2022/08/26 07:41:28;;;;;;;19.00;6.20;;;;;;;24.80;41.56;99473.73;109385;1276;22504;-67
2022/08/26 07:43:55;;;;;;;17.90;5.90;;;;;;;24.88;41.36;99471.73;109179;1274;137711;-67
2022/08/26 07:46:22;;;;;;;18.40;6.50;;;;;;;24.95;41.36;99468.04;109289;1276;22448;-67
2022/08/26 07:48:56;;;;;;;21.60;6.00;;;;;;;25.04;40.59;99464.34;109290;1276;23212;-67
2022/08/26 07:51:23;;;;;;;12.70;5.60;;;;;;;25.10;40.22;99461.14;109046;1277;139145;-67
2022/08/26 07:53:50;;;;;;;11.70;5.90;;;;;;;25.12;40.16;99455.05;109165;1277;22428;-67
2022/08/26 07:56:19;;;;;;;17.60;6.00;;;;;;;25.14;40.39;99452.08;108937;1276;138502;-67
2022/08/26 07:58:46;;;;;;;16.60;6.30;;;;;;;25.17;39.94;99444.91;109187;1276;22482;-67
2022/08/26 08:01:22;;;;;;;12.50;5.20;;;;;;;25.21;39.51;99445.20;109222;1276;22467;-67
2022/08/26 08:03:50;;;;;;;16.70;5.20;;;;;;;25.27;39.97;99442.08;109077;1276;138139;-67
2022/08/26 08:06:21;;;;;;;22.50;7.00;;;;;;;25.33;40.36;99443.20;109122;1277;22556;-66
2022/08/26 08:08:53;;;;;;;19.40;5.70;;;;;;;25.40;39.50;99439.01;108939;1277;138295;-66
2022/08/26 08:11:20;;;;;;;22.20;6.00;;;;;;;25.48;39.72;99437.21;109122;1277;22458;-67
2022/08/26 08:13:47;;;;;;;18.00;5.60;;;;;;;25.56;39.05;99437.81;109055;1277;139740;-66
2022/08/26 08:16:14;;;;;;;21.40;7.40;;;;;;;25.65;38.90;99432.98;109208;1277;23210;-67
2022/08/26 08:18:41;;;;;;;18.60;5.90;;;;;;;25.74;39.45;99433.99;109227;1276;23323;-66
2022/08/26 08:21:08;;;;;;;14.70;5.50;;;;;;;25.81;39.14;99428.83;108951;1277;137957;-66
2022/08/26 08:23:50;;;;;;;14.90;5.40;;;;;;;25.88;39.49;99431.45;109119;1277;23626;-66
2022/08/26 08:26:17;;;;;;;13.20;5.00;;;;;;;25.95;39.06;99428.05;108993;1276;139157;-66
2022/08/26 08:28:45;;;;;;;12.20;5.30;;;;;;;26.03;38.72;99425.59;109282;1276;22472;-66
2022/08/26 08:31:20;;;;;;;15.90;4.50;;;;;;;26.11;38.72;99420.27;109274;1276;22466;-66
2022/08/26 08:34:07;;;;;;;14.00;5.10;;;;;;;26.18;38.74;99421.40;109248;1276;23626;-66
2022/08/26 08:36:34;;;;;;;15.60;5.30;;;;;;;26.25;37.94;99420.12;109330;1276;23211;-66
2022/08/26 08:39:02;;;;;;;22.60;5.40;;;;;;;26.33;36.87;99417.30;109181;1276;138052;-67
2022/08/26 08:41:35;;;;;;;44.40;6.60;;;;;;;26.40;36.20;99413.14;109355;1276;22447;-66
2022/08/26 08:44:02;;;;;;;12.60;4.10;;;;;;;26.49;35.69;99411.48;109223;1274;139613;-66
2022/08/26 08:46:29;;;;;;;16.10;6.30;;;;;;;26.56;35.55;99415.48;109088;1276;23214;-66
2022/08/26 08:48:58;;;;;;;11.80;4.10;;;;;;;26.63;35.32;99410.04;109177;1276;22619;-66
2022/08/26 08:51:57;;;;;;;12.30;4.90;;;;;;;26.70;35.40;99405.70;108946;1276;138145;-67
2022/08/26 08:54:28;;;;;;;21.50;5.70;;;;;;;26.80;35.98;99407.17;109080;1278;22507;-67
2022/08/26 08:56:56;;;;;;;14.40;4.50;;;;;;;26.88;35.88;99404.95;105938;1276;138039;-66
2022/08/26 08:59:28;;;;;;;11.10;3.80;;;;;;;26.97;35.26;99394.54;104919;1276;24307;-66
2022/08/26 09:02:17;;;;;;;20.50;5.50;;;;;;;27.05;35.14;99399.23;108914;1276;138702;-67
2022/08/26 09:05:01;;;;;;;18.50;4.90;;;;;;;27.15;34.68;99399.41;109255;1276;22450;-66
2022/08/26 09:07:32;;;;;;;14.30;4.30;;;;;;;27.23;34.87;99392.30;109091;1278;23510;-67
2022/08/26 09:10:21;;;;;;;10.10;3.90;;;;;;;27.29;34.59;99391.27;109071;1276;137219;-66
2022/08/26 09:12:48;;;;;;;15.10;4.30;;;;;;;27.34;34.89;99388.24;109214;1276;22442;-66
2022/08/26 09:15:18;;;;;;;14.00;4.90;;;;;;;27.39;34.42;99386.18;108978;1276;138124;-66
2022/08/26 09:17:58;;;;;;;20.10;4.30;;;;;;;27.44;34.19;99385.85;108955;1278;23141;-66
2022/08/26 09:20:40;;;;;;;18.00;4.40;;;;;;;27.50;33.95;99384.92;109092;1276;138693;-66
2022/08/26 09:23:11;;;;;;;15.40;5.00;;;;;;;27.59;33.30;99380.85;109268;1276;22512;-66
2022/08/26 09:25:46;;;;;;;13.20;4.00;;;;;;;27.64;33.38;99385.98;108353;1276;25464;-66
2022/08/26 09:28:18;;;;;;;12.20;3.40;;;;;;;27.70;32.64;99383.20;109348;1276;22420;-66
2022/08/26 09:31:00;;;;;;;8.90;3.40;;;;;;;27.78;31.37;99385.89;109220;1276;22561;-66
2022/08/26 09:33:29;;;;;;;16.60;3.60;;;;;;;27.86;30.49;99383.51;109093;1276;138416;-66
2022/08/26 09:36:21;;;;;;;11.20;3.90;;;;;;;27.89;30.43;99378.28;109148;1276;23190;-66
2022/08/26 09:38:51;;;;;;;12.00;3.40;;;;;;;27.91;30.49;99376.33;109178;1274;138548;-67
2022/08/26 09:41:23;;;;;;;9.80;3.70;;;;;;;27.95;30.53;99378.31;109333;1274;22602;-67
2022/08/26 09:44:11;;;;;;;13.90;3.80;;;;;;;28.00;31.12;99377.73;109226;1274;138072;-67
2022/08/26 09:47:01;;;;;;;10.30;3.00;;;;;;;28.03;30.43;99374.09;109260;1275;22522;-67
2022/08/26 09:49:31;;;;;;;12.70;3.70;;;;;;;28.07;29.87;99375.04;109129;1277;22513;-66
2022/08/26 09:52:19;;;;;;;11.10;3.80;;;;;;;28.11;29.98;99373.83;109180;1274;137520;-66
2022/08/26 09:57:15;;;;;;;12.80;3.00;;;;;;;28.17;29.11;99367.73;101792;1309;545196;-65
2022/08/26 09:59:42;;;;;;;22.80;3.60;;;;;;;28.20;29.13;99367.16;103881;1288;25038;-66
2022/08/26 10:02:31;;;;;;;8.30;3.80;;;;;;;28.27;28.83;99365.41;103762;1287;137199;-65
2022/08/26 10:05:00;;;;;;;16.80;4.00;;;;;;;28.32;28.51;99362.27;103686;1287;24241;-66
2022/08/26 10:07:49;;;;;;;10.60;3.00;;;;;;;28.36;28.31;99366.66;108316;1286;22437;-67
2022/08/26 10:10:17;;;;;;;11.20;2.90;;;;;;;28.40;27.34;99368.79;106279;1286;2536206;-68
2022/08/26 10:12:48;;;;;;;10.50;3.50;;;;;;;28.41;27.15;99362.72;108352;1286;22477;-66
2022/08/26 10:15:15;;;;;;;11.70;2.80;;;;;;;28.41;26.43;99366.49;108192;1286;137160;-67
2022/08/26 10:17:48;;;;;;;8.80;2.80;;;;;;;28.44;26.49;99364.89;108125;1287;22450;-67
2022/08/26 10:20:22;;;;;;;8.10;2.20;;;;;;;28.47;25.63;99358.05;108140;1286;137122;-65
2022/08/26 10:23:01;;;;;;;8.10;2.30;;;;;;;28.50;26.21;99364.74;108955;1279;22467;-65
2022/08/26 10:25:33;;;;;;;10.60;3.20;;;;;;;28.53;26.10;99364.47;109147;1278;22451;-64
2022/08/26 10:28:06;;;;;;;12.90;3.10;;;;;;;28.57;26.71;99367.79;108891;1279;137482;-65
2022/08/26 10:30:38;;;;;;;7.00;3.10;;;;;;;28.60;27.10;99363.41;109029;1279;22471;-64
2022/08/26 10:33:10;;;;;;;37.20;23.10;;;;;;;28.63;27.42;99369.86;108742;1277;137944;-65
2022/08/26 10:35:47;;;;;;;13.60;2.80;;;;;;;28.67;27.41;99369.92;108755;1280;23200;-64
2022/08/26 10:38:17;;;;;;;10.80;2.30;;;;;;;28.71;25.43;99372.45;108553;1280;138334;-68
2022/08/26 10:41:04;;;;;;;6.60;2.40;;;;;;;28.75;24.67;99371.60;108976;1279;22659;-67
2022/08/26 10:43:40;;;;;;;10.60;2.90;;;;;;;28.77;24.12;99368.11;108640;1281;23288;-68
2022/08/26 10:46:09;;;;;;;6.10;2.50;;;;;;;28.78;23.67;99365.95;108401;1281;137113;-67
2022/08/26 10:48:52;;;;;;;6.40;2.20;;;;;;;28.77;24.40;99366.81;108779;1280;22423;-66
2022/08/26 10:51:23;;;;;;;6.30;2.40;;;;;;;28.78;24.15;99364.21;108590;1280;138027;-67
2022/08/26 10:54:12;;;;;;;18.60;13.40;;;;;;;28.79;23.77;99362.00;108807;1280;22489;-69
2022/08/26 10:56:57;;;;;;;11.80;2.80;;;;;;;28.82;24.44;99364.27;108767;1280;138825;-60
2022/08/26 10:59:43;;;;;;;14.50;3.10;;;;;;;28.83;23.31;99361.16;108858;1280;22463;-61
2022/08/26 11:02:22;;;;;;;7.70;2.30;;;;;;;28.82;23.75;99359.95;108868;1279;138106;-61
2022/08/26 11:04:54;;;;;;;8.70;2.70;;;;;;;28.82;23.62;99357.86;108923;1280;22575;-60
2022/08/26 11:07:41;;;;;;;11.10;2.60;;;;;;;28.80;23.77;99361.05;108834;1281;22485;-61
2022/08/26 11:10:17;;;;;;;9.30;2.70;;;;;;;28.81;24.07;99361.23;108882;1280;137016;-61
2022/08/26 11:12:44;;;;;;;53.80;42.30;;;;;;;28.83;24.68;99361.65;108931;1280;23096;-61
2022/08/26 11:15:20;;;;;;;12.80;3.50;;;;;;;28.84;24.82;99354.61;108759;1280;138375;-60
2022/08/26 11:17:50;;;;;;;7.40;2.80;;;;;;;28.82;24.57;99356.75;108843;1280;23255;-60
2022/08/26 11:20:26;;;;;;;8.60;3.30;;;;;;;28.80;25.12;99355.75;108777;1280;138777;-61
2022/08/26 11:22:54;;;;;;;;;;;;;;;28.79;25.38;99355.10;108908;1280;22675;-60
2022/08/26 11:25:25;;;;;;;17.60;11.10;;;;;;;28.79;25.41;99356.45;108846;1280;22591;-61
2022/08/26 11:27:58;;;;;;;12.60;4.20;;;;;;;28.80;25.19;99352.39;108597;1280;137466;-60
2022/08/26 11:30:39;;;;;;;6.80;3.10;;;;;;;28.81;25.64;99350.41;108951;1280;22526;-60
2022/08/26 11:33:06;;;;;;;12.60;4.30;;;;;;;28.85;25.93;99355.02;108909;1280;137179;-60
2022/08/26 11:35:33;;;;;;;12.10;5.20;;;;;;;28.90;26.11;99349.77;108906;1280;22453;-61